Time;durP1;ratioP1;P1;durP2;ratioP2;P2;SDS_P1;SDS_P2;PMS_P1;PMS_P2;Temp;Humidity;BMP_temperature;BMP_pressure;BME280_temperature;BME280_humidity;BME280_pressure;Samples;Min_cycle;Max_cycle;Signal;HPM_P1;HPM_P2
2022/03/26 00:01:49;;;;;;;45.67;25.40;;;4.20;99.90;;;;;;4957432;28;90637;-77
2022/03/26 00:04:15;;;;;;;43.83;24.35;;;4.20;99.90;;;;;;4960429;28;89327;-77
2022/03/26 00:06:40;;;;;;;47.33;24.60;;;4.20;99.90;;;;;;4960486;28;89201;-77
2022/03/26 00:09:06;;;;;;;43.05;23.70;;;4.20;99.90;;;;;;4960941;28;89251;-77
2022/03/26 00:11:32;;;;;;;46.22;25.13;;;4.20;99.90;;;;;;4960838;28;90515;-77
2022/03/26 00:13:57;;;;;;;45.38;24.90;;;4.10;99.90;;;;;;4959833;28;91311;-78
2022/03/26 00:16:23;;;;;;;47.30;24.15;;;4.10;99.90;;;;;;4960888;28;89356;-77
2022/03/26 00:18:48;;;;;;;43.53;24.08;;;4.10;99.90;;;;;;4960973;28;88993;-77
2022/03/26 00:21:14;;;;;;;42.90;24.25;;;4.10;99.90;;;;;;4960579;28;89284;-78
2022/03/26 00:23:39;;;;;;;46.65;24.92;;;4.10;99.90;;;;;;4959105;28;91709;-77
2022/03/26 00:26:05;;;;;;;43.58;24.88;;;4.00;99.90;;;;;;4959654;28;90153;-77
2022/03/26 00:28:31;;;;;;;42.83;22.83;;;4.00;99.90;;;;;;4960528;28;89563;-78
2022/03/26 05:02:42;;;;;;;44.00;22.23;;;1.00;99.90;;;;;;4911882;28;89908;-75
2022/03/26 05:05:09;;;;;;;43.88;22.02;;;1.00;99.90;;;;;;4920514;28;89913;-75
2022/03/26 05:07:47;;;;;;;42.58;21.05;;;1.10;99.90;;;;;;4920653;28;89328;-75
2022/03/26 05:10:18;;;;;;;41.35;21.10;;;1.10;99.90;;;;;;4920626;28;90348;-75
2022/03/26 05:12:45;;;;;;;45.05;20.98;;;1.00;99.90;;;;;;4921068;28;90574;-75
2022/03/26 05:15:12;;;;;;;43.50;21.67;;;1.10;99.90;;;;;;4921418;28;89655;-75
2022/03/26 05:17:38;;;;;;;42.17;21.65;;;1.10;99.90;;;;;;4919191;28;92834;-75
2022/03/26 05:20:08;;;;;;;52.42;23.08;;;1.00;99.90;;;;;;4921003;28;89313;-75
2022/03/26 05:22:35;;;;;;;51.58;24.02;;;1.00;99.90;;;;;;4920923;28;89218;-77
2022/03/26 05:25:02;;;;;;;52.20;25.52;;;1.00;99.90;;;;;;4920747;28;89290;-78
2022/03/26 05:27:27;;;;;;;55.33;27.30;;;1.00;99.90;;;;;;4922167;28;90308;-78
2022/03/26 05:29:53;;;;;;;50.78;25.13;;;1.00;99.90;;;;;;4920863;28;90640;-75
2022/03/26 05:32:19;;;;;;;43.50;21.13;;;1.00;99.90;;;;;;4918138;28;92875;-76
2022/03/26 05:34:45;;;;;;;38.08;20.08;;;1.10;99.90;;;;;;4920096;28;90276;-75
2022/03/26 05:37:12;;;;;;;43.20;21.08;;;1.10;99.90;;;;;;4920313;28;91683;-75
2022/03/26 05:39:38;;;;;;;43.55;22.25;;;1.10;99.90;;;;;;4920053;28;90045;-76
2022/03/26 05:42:04;;;;;;;46.28;22.17;;;1.10;99.90;;;;;;4918886;28;91680;-76
2022/03/26 05:44:30;;;;;;;42.83;20.38;;;1.10;99.90;;;;;;4920635;28;89295;-75
2022/03/26 05:46:56;;;;;;;41.55;21.23;;;1.10;99.90;;;;;;4920024;28;90940;-75
2022/03/26 05:49:21;;;;;;;45.83;21.65;;;1.10;99.90;;;;;;4920503;28;90444;-75
2022/03/26 05:51:47;;;;;;;44.10;21.88;;;1.20;99.90;;;;;;4920683;28;90062;-76
2022/03/26 05:54:14;;;;;;;37.75;20.10;;;1.30;99.90;;;;;;4920593;28;89306;-76
2022/03/26 05:56:40;;;;;;;43.90;20.83;;;1.30;99.90;;;;;;4920206;28;89723;-76
2022/03/26 05:59:06;;;;;;;43.20;21.63;;;1.40;99.90;;;;;;4919748;28;90603;-76
2022/03/26 06:01:32;;;;;;;40.80;20.55;;;1.50;99.90;;;;;;4919390;28;90751;-76
2022/03/26 06:03:58;;;;;;;41.72;21.30;;;1.60;99.90;;;;;;4918776;28;89234;-76
2022/03/26 06:06:24;;;;;;;40.47;20.25;;;1.70;99.90;;;;;;4915783;28;89318;-75
2022/03/26 06:08:49;;;;;;;40.03;20.63;;;1.80;99.90;;;;;;4920006;28;89233;-76
2022/03/26 06:11:15;;;;;;;39.97;20.52;;;1.80;99.90;;;;;;4918070;28;89598;-76
2022/03/26 06:13:40;;;;;;;38.05;20.00;;;1.90;99.90;;;;;;4900657;28;89166;-76
2022/03/26 06:16:06;;;;;;;43.40;21.05;;;1.90;99.90;;;;;;4900761;28;89664;-76
2022/03/26 06:18:31;;;;;;;43.22;21.40;;;2.00;99.90;;;;;;4899490;28;92637;-76
2022/03/26 06:20:57;;;;;;;40.28;20.50;;;2.10;99.90;;;;;;4915060;28;89595;-76
2022/03/26 06:23:22;;;;;;;41.47;20.98;;;2.20;99.90;;;;;;4918047;28;90304;-76
2022/03/26 06:25:49;;;;;;;44.63;21.08;;;2.30;99.90;;;;;;4919365;28;89775;-76
2022/03/26 06:28:19;;;;;;;38.28;20.30;;;2.40;99.90;;;;;;4920352;28;89314;-75
2022/03/26 06:30:47;;;;;;;44.47;20.73;;;2.50;99.90;;;;;;4922878;28;89706;-75
2022/03/26 06:33:15;;;;;;;41.10;20.55;;;2.60;99.90;;;;;;4914897;28;89231;-75
2022/03/26 06:35:46;;;;;;;38.35;20.05;;;2.70;99.90;;;;;;4898457;28;90041;-75
2022/03/26 06:38:12;;;;;;;41.22;20.92;;;2.70;99.90;;;;;;4900204;28;89580;-76
2022/03/26 06:40:39;;;;;;;40.42;20.25;;;2.90;99.90;;;;;;4900287;28;89906;-75
2022/03/26 06:43:06;;;;;;;35.90;20.02;;;3.00;99.90;;;;;;4903045;28;89302;-74
2022/03/26 06:45:32;;;;;;;40.28;21.08;;;3.10;99.90;;;;;;4905700;28;89732;-74
2022/03/26 06:47:58;;;;;;;39.05;21.00;;;3.20;99.90;;;;;;4899675;28;90974;-75
2022/03/26 06:50:24;;;;;;;37.40;20.10;;;3.40;99.90;;;;;;4898632;28;90890;-74
2022/03/26 06:52:50;;;;;;;35.75;19.83;;;3.50;99.90;;;;;;4900048;28;89205;-74
2022/03/26 06:55:15;;;;;;;37.88;21.88;;;3.60;99.90;;;;;;4899960;28;89845;-74
2022/03/26 06:57:41;;;;;;;41.65;20.88;;;3.70;99.90;;;;;;4899778;28;91752;-74
2022/03/26 07:00:09;;;;;;;40.70;21.77;;;3.90;99.90;;;;;;4908735;28;92802;-74
2022/03/26 07:02:36;;;;;;;40.58;20.73;;;4.10;99.90;;;;;;4912193;28;89367;-74
2022/03/26 07:05:02;;;;;;;40.92;21.88;;;4.20;99.90;;;;;;4917020;28;89249;-74
2022/03/26 07:07:27;;;;;;;35.78;20.38;;;4.40;99.90;;;;;;4917127;28;93316;-74
2022/03/26 07:09:53;;;;;;;38.13;19.70;;;4.60;99.90;;;;;;4918727;28;89247;-75
2022/03/26 07:12:18;;;;;;;39.42;20.88;;;4.70;99.90;;;;;;4917311;28;90333;-74
2022/03/26 07:14:44;;;;;;;38.45;20.83;;;4.90;99.90;;;;;;4902344;28;91476;-74
2022/03/26 07:17:10;;;;;;;39.50;19.67;;;5.00;99.90;;;;;;4899641;28;89448;-74
2022/03/26 07:19:35;;;;;;;34.35;19.45;;;5.20;99.90;;;;;;4899239;28;92393;-74
2022/03/26 07:22:01;;;;;;;38.00;18.80;;;5.30;99.90;;;;;;4918946;28;89210;-74
2022/03/26 07:24:26;;;;;;;35.92;19.15;;;5.50;99.90;;;;;;4904902;28;91518;-74
2022/03/26 07:26:52;;;;;;;31.67;19.00;;;5.60;99.90;;;;;;4899626;28;90208;-74
2022/03/26 07:29:17;;;;;;;35.70;19.05;;;5.80;99.90;;;;;;4899932;28;89902;-74
2022/03/26 07:31:43;;;;;;;32.85;18.25;;;5.90;99.90;;;;;;4900294;28;89365;-74
2022/03/26 07:34:11;;;;;;;35.28;18.33;;;6.10;99.90;;;;;;4909251;28;90126;-74
2022/03/26 07:36:36;;;;;;;34.88;19.10;;;6.30;99.90;;;;;;4915653;28;92575;-75
2022/03/26 07:39:02;;;;;;;33.08;18.60;;;6.50;99.90;;;;;;4913535;28;89755;-75
2022/03/26 07:41:27;;;;;;;37.30;19.13;;;6.60;99.90;;;;;;4902389;28;89565;-74
2022/03/26 07:43:53;;;;;;;40.42;20.02;;;6.80;99.90;;;;;;4910103;28;89344;-75
2022/03/26 07:46:25;;;;;;;36.72;19.10;;;7.10;99.90;;;;;;4919408;28;89182;-74
2022/03/26 07:49:09;;;;;;;38.20;18.92;;;7.30;99.90;;;;;;4922539;28;91412;-77
2022/03/26 07:51:35;;;;;;;33.22;18.10;;;7.70;99.90;;;;;;4903999;28;89350;-75
2022/03/26 07:54:00;;;;;;;30.27;16.42;;;7.90;99.70;;;;;;4910293;28;89965;-76
2022/03/26 07:56:26;;;;;;;34.72;18.40;;;8.10;98.70;;;;;;4898889;28;89355;-77
2022/03/26 07:58:51;;;;;;;32.58;17.65;;;8.30;97.40;;;;;;4900353;28;89171;-76
2022/03/26 08:01:17;;;;;;;33.03;17.08;;;8.40;97.40;;;;;;4898447;28;90385;-75
2022/03/26 08:03:43;;;;;;;32.75;17.25;;;8.60;97.50;;;;;;4904732;28;89309;-75
2022/03/26 08:06:08;;;;;;;36.17;18.40;;;8.70;96.40;;;;;;4918270;28;90066;-76
2022/03/26 08:08:34;;;;;;;34.67;18.00;;;8.90;96.80;;;;;;4914845;28;91276;-76
2022/03/26 08:10:59;;;;;;;32.70;18.30;;;8.90;96.60;;;;;;4898343;28;89241;-76
2022/03/26 08:13:25;;;;;;;37.20;18.15;;;9.10;96.30;;;;;;4898922;28;89254;-76
2022/03/26 08:15:51;;;;;;;34.72;18.23;;;9.30;95.40;;;;;;4897633;28;92557;-76
2022/03/26 08:18:16;;;;;;;34.45;18.08;;;9.50;94.20;;;;;;4885894;28;90217;-76
2022/03/26 08:20:43;;;;;;;33.28;17.92;;;9.60;94.30;;;;;;4891437;28;89254;-75
2022/03/26 08:23:09;;;;;;;29.42;17.40;;;9.70;93.80;;;;;;4900784;28;91288;-75
2022/03/26 08:28:18;;;;;;;34.65;18.08;;;10.10;93.20;;;;;;4921994;28;89287;-76
2022/03/26 08:30:44;;;;;;;34.22;18.73;;;10.30;92.30;;;;;;4921846;28;89332;-77
2022/03/26 08:33:10;;;;;;;35.53;19.23;;;10.50;92.00;;;;;;4921942;28;90049;-77
2022/03/26 08:35:39;;;;;;;28.90;17.55;;;10.70;91.30;;;;;;4904617;28;89257;-78
2022/03/26 08:38:06;;;;;;;33.10;18.52;;;10.90;90.20;;;;;;4902364;28;91880;-76
2022/03/26 08:40:32;;;;;;;33.95;18.58;;;11.00;90.50;;;;;;4904244;28;89472;-78
2022/03/26 08:42:59;;;;;;;30.35;17.60;;;11.10;89.10;;;;;;4903912;28;88871;-77
2022/03/26 08:45:26;;;;;;;34.97;19.15;;;11.30;89.50;;;;;;4925293;28;89384;-77
2022/03/26 08:47:51;;;;;;;33.33;18.30;;;11.40;89.60;;;;;;4919983;28;89487;-78
2022/03/26 08:50:17;;;;;;;34.50;19.02;;;11.50;87.30;;;;;;4920892;28;90214;-76
2022/03/26 08:52:42;;;;;;;33.95;19.02;;;11.50;87.40;;;;;;4921916;28;90155;-75
2022/03/26 08:55:08;;;;;;;38.28;19.60;;;11.60;86.90;;;;;;4905512;28;89451;-75
2022/03/26 08:57:34;;;;;;;36.00;18.95;;;11.70;86.60;;;;;;4902622;28;89190;-75
2022/03/26 09:00:00;;;;;;;36.15;19.65;;;11.90;87.60;;;;;;4902895;28;89503;-76
2022/03/26 09:02:26;;;;;;;31.95;18.08;;;12.00;85.40;;;;;;4901601;28;90866;-76
2022/03/26 09:04:52;;;;;;;32.40;18.77;;;12.10;84.70;;;;;;4913589;28;92682;-75
2022/03/26 09:07:18;;;;;;;31.63;18.48;;;12.20;85.20;;;;;;4921140;28;88808;-76
2022/03/26 09:09:43;;;;;;;34.35;19.25;;;12.40;84.00;;;;;;4919727;28;89410;-76
2022/03/26 09:12:09;;;;;;;35.33;19.48;;;12.50;83.30;;;;;;4920731;28;89624;-76
2022/03/26 09:14:34;;;;;;;38.60;20.05;;;12.70;82.00;;;;;;4907987;28;94119;-75
2022/03/26 09:17:00;;;;;;;40.28;20.27;;;12.90;81.90;;;;;;4906749;28;89428;-75
2022/03/26 09:19:25;;;;;;;36.28;19.98;;;12.80;81.40;;;;;;4921450;28;89246;-76
2022/03/26 09:21:51;;;;;;;38.30;19.65;;;13.00;81.30;;;;;;4920698;28;89300;-75
2022/03/26 09:24:17;;;;;;;34.72;19.40;;;13.10;81.30;;;;;;4912811;28;90005;-76
2022/03/26 09:26:43;;;;;;;36.92;20.00;;;13.20;80.90;;;;;;4901673;28;89183;-76
2022/03/26 09:29:09;;;;;;;36.17;20.10;;;13.30;78.40;;;;;;4901907;28;89206;-76
2022/03/26 09:31:34;;;;;;;36.05;19.73;;;13.50;78.50;;;;;;4902161;28;89514;-76
2022/03/26 09:34:00;;;;;;;33.53;20.80;;;13.60;78.50;;;;;;4907362;28;90019;-76
2022/03/26 09:36:26;;;;;;;39.13;21.13;;;13.70;78.20;;;;;;4920246;28;89186;-76
2022/03/26 09:38:51;;;;;;;36.13;20.17;;;13.80;76.30;;;;;;4921064;28;90163;-76
2022/03/26 09:41:17;;;;;;;35.08;20.38;;;13.90;77.40;;;;;;4919167;28;91661;-76
2022/03/26 09:43:43;;;;;;;37.05;20.08;;;14.10;77.10;;;;;;4917638;28;90665;-76
2022/03/26 09:46:10;;;;;;;35.33;19.42;;;14.20;77.20;;;;;;4901412;28;89302;-76
2022/03/26 09:48:38;;;;;;;36.83;20.27;;;14.40;78.50;;;;;;4902239;28;89689;-76
2022/03/26 09:51:04;;;;;;;37.70;20.05;;;14.40;73.90;;;;;;4919373;28;89393;-76
2022/03/26 09:53:30;;;;;;;31.35;19.15;;;14.50;74.10;;;;;;4923530;28;90465;-76
2022/03/26 09:55:57;;;;;;;39.92;19.98;;;14.50;74.30;;;;;;4922486;28;89079;-76
2022/03/26 09:58:23;;;;;;;35.17;20.20;;;14.60;76.00;;;;;;4919533;28;89358;-77
2022/03/26 10:00:49;;;;;;;35.92;19.40;;;14.90;73.40;;;;;;4920267;28;89334;-76
2022/03/26 10:03:16;;;;;;;34.63;19.73;;;15.10;71.80;;;;;;4920717;28;90495;-76
2022/03/26 10:05:41;;;;;;;37.10;19.58;;;15.30;72.10;;;;;;4902209;28;90738;-76
2022/03/26 10:08:23;;;;;;;34.97;19.17;;;15.30;69.90;;;;;;4901502;28;89275;-76
2022/03/26 10:10:49;;;;;;;30.25;19.23;;;15.40;68.80;;;;;;4901145;28;89265;-76
2022/03/26 10:13:40;;;;;;;37.95;19.17;;;15.60;68.60;;;;;;4915931;28;89690;-76
2022/03/26 10:16:11;;;;;;;29.15;18.48;;;15.70;68.30;;;;;;4881948;28;89750;-76
2022/03/26 10:18:42;;;;;;;32.38;17.67;;;15.70;67.90;;;;;;4882466;28;89170;-76
2022/03/26 10:21:10;;;;;;;32.97;18.08;;;16.00;67.30;;;;;;4880799;28;91929;-76
2022/03/26 10:23:36;;;;;;;33.63;17.00;;;16.20;64.40;;;;;;4883131;28;89909;-76
2022/03/26 10:26:07;;;;;;;28.77;17.10;;;16.20;62.80;;;;;;4918626;28;92749;-76
2022/03/26 10:28:32;;;;;;;31.15;17.20;;;16.30;63.00;;;;;;4919789;28;90245;-76
2022/03/26 10:34:21;;;;;;;32.72;17.88;;;16.50;61.70;;;;;;4913145;28;89196;-76
2022/03/26 10:36:58;;;;;;;32.92;18.63;;;16.60;63.50;;;;;;4900769;28;89716;-76
2022/03/26 10:39:26;;;;;;;29.10;17.85;;;16.70;64.20;;;;;;4899487;28;89378;-76
2022/03/26 10:41:52;;;;;;;37.35;19.13;;;16.90;61.60;;;;;;4919631;28;89694;-76
2022/03/26 10:44:22;;;;;;;33.55;18.30;;;17.00;60.30;;;;;;4913887;28;90074;-76
2022/03/26 10:47:01;;;;;;;31.95;19.25;;;17.10;60.50;;;;;;4899674;28;89748;-76
2022/03/26 10:49:38;;;;;;;34.90;19.98;;;17.10;61.20;;;;;;4900929;28;89376;-76
2022/03/26 10:52:17;;;;;;;34.53;18.05;;;16.90;64.70;;;;;;4900261;28;89339;-76
2022/03/26 10:54:43;;;;;;;30.98;19.23;;;17.20;58.90;;;;;;4907734;28;93035;-76
2022/03/26 10:57:10;;;;;;;33.95;19.45;;;17.40;60.70;;;;;;4919465;28;89691;-76
2022/03/26 10:59:36;;;;;;;37.63;19.92;;;17.00;63.20;;;;;;4918326;28;89277;-76
2022/03/26 11:02:01;;;;;;;35.15;18.80;;;17.20;63.50;;;;;;4918942;28;89803;-76
2022/03/26 11:04:28;;;;;;;36.22;20.55;;;17.20;63.30;;;;;;4912807;28;89235;-76
2022/03/26 11:06:55;;;;;;;35.10;20.58;;;17.20;63.20;;;;;;4900004;28;89174;-76
2022/03/26 11:09:21;;;;;;;35.05;20.02;;;17.20;62.70;;;;;;4915674;28;89275;-76
2022/03/26 11:11:49;;;;;;;32.58;18.77;;;17.20;62.40;;;;;;4918117;28;93026;-76
2022/03/26 11:14:24;;;;;;;36.30;19.77;;;17.40;61.90;;;;;;4919239;28;89923;-76
2022/03/26 11:17:20;;;;;;;32.83;19.42;;;17.40;61.10;;;;;;4919502;28;90359;-76
2022/03/26 11:20:04;;;;;;;33.03;19.80;;;17.50;61.40;;;;;;4918686;28;90745;-76
2022/03/26 11:22:57;;;;;;;41.08;22.33;;;17.50;61.90;;;;;;4918551;28;90063;-75
2022/03/26 11:25:50;;;;;;;30.02;18.58;;;17.70;61.20;;;;;;4904102;28;89392;-75
2022/03/26 11:28:41;;;;;;;39.30;23.58;;;17.90;63.30;;;;;;4899556;28;90263;-77
2022/03/26 11:31:23;;;;;;;32.13;19.65;;;17.90;59.50;;;;;;4897865;28;89325;-77
2022/03/26 11:33:49;;;;;;;27.92;17.58;;;17.90;59.80;;;;;;4900181;28;90837;-76
2022/03/26 11:36:18;;;;;;;29.77;18.67;;;18.00;57.70;;;;;;4900062;28;90463;-76
2022/03/26 11:38:55;;;;;;;31.75;18.20;;;17.90;56.60;;;;;;4899941;28;89927;-76
2022/03/26 11:41:31;;;;;;;31.92;19.30;;;17.90;57.30;;;;;;4898209;28;89285;-76
2022/03/26 11:43:58;;;;;;;30.98;17.83;;;18.10;58.80;;;;;;4901418;28;93130;-76
2022/03/26 11:50:41;;;;;;;33.55;18.83;;;18.20;57.90;;;;;;4919297;28;90313;-76
2022/03/26 11:52:32;;;;;;;28.67;17.73;;;18.10;57.10;;;;;;4918395;28;89594;-76
2022/03/26 11:55:24;;;;;;;30.10;18.33;;;18.40;58.50;;;;;;4907515;28;89928;-76
2022/03/26 11:58:12;;;;;;;28.23;17.45;;;18.30;56.90;;;;;;4900071;28;89703;-77
2022/03/26 12:00:52;;;;;;;29.98;17.65;;;18.50;55.40;;;;;;4898576;28;89249;-76
2022/03/26 12:03:26;;;;;;;30.75;18.58;;;18.60;54.40;;;;;;4916203;28;89319;-76
2022/03/26 12:08:57;;;;;;;33.92;19.40;;;18.60;54.90;;;;;;4904022;28;89631;-76
2022/03/26 12:11:27;;;;;;;33.42;18.90;;;18.50;56.80;;;;;;4903830;28;89752;-76
2022/03/26 12:14:04;;;;;;;31.17;18.15;;;18.60;55.70;;;;;;4904089;28;90375;-76
2022/03/26 12:16:48;;;;;;;32.55;17.85;;;19.00;57.40;;;;;;4921787;28;89374;-76
2022/03/26 12:19:45;;;;;;;30.52;18.73;;;19.20;56.40;;;;;;4920738;28;92404;-76
2022/03/26 12:22:23;;;;;;;31.73;18.30;;;19.40;53.70;;;;;;4922232;28;89327;-77
2022/03/26 12:24:49;;;;;;;34.30;19.30;;;19.10;56.20;;;;;;4911880;28;89292;-76
2022/03/26 12:27:16;;;;;;;32.20;19.70;;;19.20;55.80;;;;;;4902911;28;90405;-77
2022/03/26 12:29:42;;;;;;;32.08;17.85;;;19.30;56.20;;;;;;4902230;28;91059;-77
2022/03/26 12:32:08;;;;;;;34.13;18.20;;;19.40;55.60;;;;;;4920899;28;91894;-77
2022/03/26 12:34:33;;;;;;;29.92;18.80;;;19.50;55.20;;;;;;4913361;28;89347;-77
2022/03/26 12:37:03;;;;;;;32.65;18.65;;;19.30;55.10;;;;;;4902445;28;91103;-77
2022/03/26 12:39:29;;;;;;;31.70;18.30;;;19.50;56.00;;;;;;4902127;28;91048;-76
2022/03/26 12:41:56;;;;;;;30.98;18.00;;;19.50;55.40;;;;;;4902712;28;91105;-76
2022/03/26 12:44:22;;;;;;;32.20;18.80;;;19.70;54.90;;;;;;4912883;28;89405;-76
2022/03/26 12:46:49;;;;;;;28.80;18.23;;;19.80;52.50;;;;;;4921400;28;89391;-76
2022/03/26 12:49:20;;;;;;;31.25;18.88;;;19.90;52.80;;;;;;4920126;28;92009;-76
2022/03/26 12:51:53;;;;;;;29.48;18.50;;;20.30;52.40;;;;;;4921325;28;89418;-77
2022/03/26 12:54:19;;;;;;;33.00;17.90;;;20.30;52.70;;;;;;4912651;28;89192;-77
2022/03/26 12:56:48;;;;;;;28.98;17.30;;;20.50;49.60;;;;;;4902323;28;90130;-76
2022/03/26 12:59:14;;;;;;;29.48;17.95;;;20.60;50.30;;;;;;4901727;28;90117;-76
2022/03/26 13:01:42;;;;;;;29.23;17.90;;;20.60;51.00;;;;;;4901450;28;89705;-76
2022/03/26 13:04:07;;;;;;;26.85;17.33;;;20.60;49.50;;;;;;4895280;28;90181;-76
2022/03/26 13:06:33;;;;;;;30.80;18.08;;;20.90;49.70;;;;;;4920971;28;89673;-76
2022/03/26 13:09:00;;;;;;;30.58;18.25;;;21.10;50.20;;;;;;4920904;28;89159;-76
2022/03/26 13:11:28;;;;;;;28.42;16.23;;;20.70;50.70;;;;;;4919020;28;91864;-76
2022/03/26 13:13:58;;;;;;;25.10;16.65;;;20.80;50.20;;;;;;4926537;28;89501;-75
2022/03/26 13:16:29;;;;;;;26.77;16.50;;;20.70;48.20;;;;;;4922760;28;91639;-76
2022/03/26 13:19:01;;;;;;;30.30;17.00;;;20.90;48.70;;;;;;4908014;28;91823;-76
2022/03/26 13:21:33;;;;;;;28.45;16.42;;;20.90;47.30;;;;;;4917231;28;89559;-75
2022/03/26 13:24:07;;;;;;;25.40;16.38;;;20.80;49.20;;;;;;4913715;28;89367;-76
2022/03/26 13:26:47;;;;;;;31.00;17.85;;;20.70;48.40;;;;;;4900842;28;91179;-75
2022/03/26 13:29:30;;;;;;;28.25;17.05;;;20.70;48.50;;;;;;4900867;28;91102;-75
2022/03/26 13:31:58;;;;;;;27.17;16.13;;;20.80;48.00;;;;;;4918511;28;90812;-75
2022/03/26 13:34:25;;;;;;;26.42;16.20;;;20.70;50.10;;;;;;4911811;28;89482;-75
2022/03/26 13:36:52;;;;;;;22.55;15.52;;;20.70;47.40;;;;;;4901134;28;89477;-75
2022/03/26 13:39:26;;;;;;;25.17;15.98;;;20.70;47.60;;;;;;4900694;28;89897;-76
2022/03/26 13:41:52;;;;;;;24.85;15.15;;;21.00;50.00;;;;;;4900756;28;90341;-75
2022/03/26 13:44:20;;;;;;;25.45;15.38;;;21.20;46.50;;;;;;4901078;28;89594;-75
2022/03/26 13:46:47;;;;;;;21.27;14.77;;;21.10;45.10;;;;;;4901230;28;89334;-76
2022/03/26 13:49:32;;;;;;;23.13;14.32;;;21.20;46.30;;;;;;4900706;28;90288;-76
2022/03/26 13:52:00;;;;;;;25.88;13.80;;;21.00;45.20;;;;;;4900826;28;90615;-75
2022/03/26 13:54:34;;;;;;;20.58;13.23;;;21.00;45.50;;;;;;4908405;28;90285;-76
2022/03/26 13:57:01;;;;;;;22.13;12.50;;;21.10;44.50;;;;;;4919666;28;89726;-75
2022/03/26 13:59:27;;;;;;;17.40;12.30;;;21.10;43.10;;;;;;4904046;28;91748;-75
2022/03/26 14:01:54;;;;;;;18.40;11.55;;;21.00;45.50;;;;;;4900538;28;90148;-75
2022/03/26 14:04:26;;;;;;;16.98;10.60;;;21.10;43.30;;;;;;4907751;28;89433;-76
2022/03/26 14:06:52;;;;;;;20.08;11.13;;;21.20;40.40;;;;;;4919651;28;89776;-76
2022/03/26 14:09:22;;;;;;;17.98;11.57;;;21.10;42.10;;;;;;4918266;28;92014;-76
2022/03/26 14:11:48;;;;;;;16.75;11.45;;;21.30;42.50;;;;;;4919900;28;90322;-76
2022/03/26 14:14:14;;;;;;;18.33;11.45;;;21.20;42.70;;;;;;4913491;28;89281;-75
2022/03/26 14:16:39;;;;;;;20.08;11.85;;;21.60;43.60;;;;;;4900055;28;89604;-76
2022/03/26 14:19:05;;;;;;;19.30;11.75;;;22.20;41.00;;;;;;4899888;28;91427;-75
2022/03/26 14:21:31;;;;;;;17.67;10.98;;;23.20;40.10;;;;;;4912905;28;90891;-75
2022/03/26 14:23:56;;;;;;;17.83;10.15;;;24.30;39.90;;;;;;4919824;28;89651;-75
2022/03/26 14:26:23;;;;;;;17.63;10.63;;;24.70;37.50;;;;;;4918363;28;89855;-76
2022/03/26 14:28:48;;;;;;;16.48;9.93;;;24.80;38.10;;;;;;4919258;28;89919;-76
2022/03/26 14:31:14;;;;;;;20.92;12.07;;;25.50;35.90;;;;;;4910173;28;89329;-76
2022/03/26 14:33:40;;;;;;;20.63;11.73;;;26.30;35.80;;;;;;4900477;28;89327;-76
2022/03/26 14:36:06;;;;;;;17.60;12.52;;;26.20;34.30;;;;;;4900364;28;89991;-76
2022/03/26 14:38:32;;;;;;;22.27;12.48;;;26.00;35.90;;;;;;4900018;28;90021;-76
2022/03/26 14:40:59;;;;;;;20.73;13.45;;;26.50;35.80;;;;;;4900099;28;89764;-74
2022/03/26 14:43:24;;;;;;;20.15;13.13;;;26.40;35.60;;;;;;4905435;28;90261;-74
2022/03/26 14:45:52;;;;;;;24.27;13.27;;;26.70;35.60;;;;;;4918266;28;91138;-74
2022/03/26 14:48:18;;;;;;;22.42;11.98;;;26.60;38.50;;;;;;4919265;28;89224;-74
2022/03/26 14:50:44;;;;;;;17.40;11.90;;;27.40;34.90;;;;;;4913368;28;90940;-74
2022/03/26 14:53:11;;;;;;;18.83;11.32;;;27.80;34.50;;;;;;4899947;28;89202;-74
2022/03/26 14:55:37;;;;;;;21.95;11.80;;;27.90;34.20;;;;;;4913784;28;91848;-75
2022/03/26 14:58:03;;;;;;;17.10;11.40;;;28.60;31.60;;;;;;4918985;28;89885;-75
2022/03/26 15:00:29;;;;;;;20.83;13.18;;;28.10;33.20;;;;;;4913884;28;91767;-75
2022/03/26 15:02:55;;;;;;;20.85;13.23;;;27.70;34.80;;;;;;4898707;28;89314;-74
2022/03/26 15:05:21;;;;;;;20.55;13.60;;;27.20;35.10;;;;;;4899590;28;90826;-74
2022/03/26 15:07:47;;;;;;;21.45;12.57;;;28.20;32.50;;;;;;4899093;28;91023;-74
2022/03/26 15:10:12;;;;;;;22.00;12.60;;;27.60;33.30;;;;;;4898148;28;93414;-74
2022/03/26 15:12:38;;;;;;;21.17;12.80;;;27.40;34.00;;;;;;4899641;28;89243;-74
2022/03/26 15:15:05;;;;;;;18.25;11.23;;;26.70;34.20;;;;;;4899443;28;89372;-75
2022/03/26 15:17:30;;;;;;;16.63;9.88;;;27.20;33.80;;;;;;4899320;28;90220;-74
2022/03/26 15:19:56;;;;;;;21.48;10.10;;;27.20;32.80;;;;;;4900052;28;90205;-74
2022/03/26 15:22:21;;;;;;;17.52;9.70;;;27.10;31.50;;;;;;4916642;28;89172;-74
2022/03/26 15:24:47;;;;;;;20.38;11.00;;;27.30;32.90;;;;;;4920066;28;89000;-74
2022/03/26 15:27:12;;;;;;;18.40;11.18;;;27.80;31.80;;;;;;4918457;28;89517;-74
2022/03/26 15:29:38;;;;;;;20.00;11.77;;;28.40;31.00;;;;;;4918221;28;89631;-75
2022/03/26 15:32:08;;;;;;;21.02;12.20;;;27.70;32.60;;;;;;4900946;28;90417;-74
2022/03/26 15:34:34;;;;;;;17.73;11.52;;;28.10;33.00;;;;;;4898937;28;89424;-74
2022/03/26 15:37:01;;;;;;;22.10;12.02;;;27.20;33.10;;;;;;4897635;28;93360;-74
2022/03/26 15:39:26;;;;;;;19.42;10.85;;;27.80;33.30;;;;;;4897926;28;92984;-74
2022/03/26 15:41:52;;;;;;;15.98;9.63;;;27.40;30.20;;;;;;4910672;28;89355;-74
2022/03/26 15:44:18;;;;;;;18.40;9.63;;;27.60;32.40;;;;;;4918384;28;89738;-74
2022/03/26 15:46:44;;;;;;;16.17;9.32;;;28.30;31.10;;;;;;4919004;28;90071;-74
2022/03/26 15:49:09;;;;;;;16.75;9.73;;;29.00;30.10;;;;;;4911448;28;90136;-74
2022/03/26 15:51:35;;;;;;;14.85;9.60;;;29.80;31.60;;;;;;4910399;28;89314;-74
2022/03/26 15:54:01;;;;;;;17.75;9.63;;;29.80;30.00;;;;;;4919160;28;89414;-74
2022/03/26 15:56:27;;;;;;;16.58;10.60;;;29.20;29.90;;;;;;4918098;28;90265;-74
2022/03/26 15:58:53;;;;;;;17.05;10.07;;;27.90;29.70;;;;;;4917757;28;89399;-74
2022/03/26 16:01:19;;;;;;;16.05;9.85;;;28.30;32.10;;;;;;4909602;28;89333;-74
2022/03/26 16:03:44;;;;;;;18.00;9.65;;;28.20;30.20;;;;;;4899890;28;89925;-74
2022/03/26 16:06:10;;;;;;;17.02;10.15;;;28.40;31.30;;;;;;4899159;28;89201;-74
2022/03/26 16:08:35;;;;;;;17.90;10.23;;;28.80;30.20;;;;;;4899393;28;89194;-74
2022/03/26 16:11:01;;;;;;;17.08;9.68;;;28.80;30.30;;;;;;4899240;28;89251;-74
2022/03/26 16:13:27;;;;;;;21.50;10.80;;;27.70;30.90;;;;;;4899659;28;89883;-74
2022/03/26 16:15:53;;;;;;;19.90;9.93;;;26.90;31.70;;;;;;4898777;28;89286;-74
2022/03/26 16:18:19;;;;;;;20.40;10.60;;;27.00;32.00;;;;;;4915220;28;91544;-74
2022/03/26 16:20:45;;;;;;;18.05;10.25;;;26.10;33.00;;;;;;4914008;28;90207;-74
2022/03/26 16:23:11;;;;;;;16.70;9.95;;;25.50;35.00;;;;;;4897427;28;91383;-75
2022/03/26 16:25:37;;;;;;;18.20;10.25;;;25.50;33.90;;;;;;4899389;28;89233;-75
2022/03/26 16:28:03;;;;;;;19.50;10.40;;;25.00;34.40;;;;;;4898618;28;89539;-75
2022/03/26 16:30:29;;;;;;;21.92;10.15;;;23.60;36.10;;;;;;4899414;28;89147;-75
2022/03/26 16:32:57;;;;;;;20.17;9.85;;;22.30;39.60;;;;;;4918123;28;89645;-75
2022/03/26 16:35:23;;;;;;;19.13;9.43;;;21.00;41.30;;;;;;4898345;28;92685;-75
2022/03/26 16:37:49;;;;;;;23.08;10.07;;;20.40;42.40;;;;;;4906189;28;89818;-74
2022/03/26 16:40:16;;;;;;;26.00;10.65;;;19.60;44.20;;;;;;4919798;28;88805;-75
2022/03/26 16:42:42;;;;;;;19.25;9.48;;;19.00;44.60;;;;;;4930822;28;91646;-75
2022/03/26 16:45:08;;;;;;;20.50;10.10;;;18.70;46.40;;;;;;4913173;28;90161;-76
2022/03/26 16:47:33;;;;;;;21.67;9.98;;;18.30;46.20;;;;;;4902505;28;89467;-76
2022/03/26 16:49:59;;;;;;;18.63;8.95;;;18.00;47.30;;;;;;4902661;28;89158;-76
2022/03/26 16:52:24;;;;;;;16.42;8.68;;;17.80;47.00;;;;;;4902855;28;89531;-75
2022/03/26 16:54:50;;;;;;;17.83;8.90;;;17.60;48.10;;;;;;4903226;28;91347;-76
2022/03/26 16:57:16;;;;;;;18.75;8.95;;;17.30;48.30;;;;;;4917374;28;89359;-75
2022/03/26 16:59:42;;;;;;;17.75;8.75;;;17.10;49.40;;;;;;4921200;28;89369;-75
2022/03/26 17:02:09;;;;;;;20.63;8.98;;;16.90;49.00;;;;;;4921248;28;91435;-76
2022/03/26 17:04:35;;;;;;;18.60;8.73;;;16.80;50.10;;;;;;4920151;28;92072;-76
2022/03/26 17:07:01;;;;;;;17.40;8.30;;;16.60;49.70;;;;;;4909150;28;89996;-76
2022/03/26 17:09:27;;;;;;;23.90;9.55;;;16.50;50.80;;;;;;4900375;28;90261;-77
2022/03/26 17:11:52;;;;;;;23.13;8.15;;;16.20;52.40;;;;;;4901505;28;91694;-74
2022/03/26 17:14:18;;;;;;;21.50;8.90;;;16.10;51.60;;;;;;4919726;28;89932;-74
2022/03/26 17:16:44;;;;;;;26.20;8.93;;;15.90;52.00;;;;;;4912590;28;89287;-75
2022/03/26 17:19:11;;;;;;;17.90;7.72;;;15.70;51.80;;;;;;4907525;28;89337;-75